createdAt,value
2022-09-20T00:00:07.190Z,0
2022-09-20T00:01:16.360Z,0
2022-09-20T00:02:25.568Z,0
2022-09-20T00:03:34.712Z,0
2022-09-20T00:04:43.868Z,0
2022-09-20T00:05:52.073Z,0
2022-09-20T00:07:01.243Z,0
2022-09-20T00:08:10.415Z,0
2022-09-20T00:09:19.591Z,0
2022-09-20T00:10:28.757Z,0
2022-09-20T00:11:37.929Z,0
2022-09-20T00:12:47.104Z,0
2022-09-20T00:13:56.307Z,0
2022-09-20T00:15:05.442Z,0
2022-09-20T00:16:14.625Z,0
2022-09-20T00:17:23.791Z,0
2022-09-20T00:18:32.967Z,0
2022-09-20T00:19:42.132Z,0
2022-09-20T00:20:50.324Z,0
2022-09-20T00:21:59.499Z,0
2022-09-20T00:23:08.674Z,0
2022-09-20T00:24:17.836Z,0
2022-09-20T00:25:27.011Z,0
2022-09-20T00:26:36.191Z,0
2022-09-20T00:27:45.359Z,0
2022-09-20T00:28:54.547Z,0
2022-09-20T00:30:03.703Z,0
2022-09-20T00:31:12.882Z,0
2022-09-20T00:33:31.219Z,0
2022-09-20T00:34:40.428Z,0
2022-09-20T00:35:48.594Z,0
2022-09-20T00:36:57.756Z,0
2022-09-20T00:38:06.926Z,0
2022-09-20T00:39:16.101Z,0
2022-09-20T00:40:25.273Z,0
2022-09-20T00:41:34.449Z,0
2022-09-20T00:42:43.619Z,0
2022-09-20T00:43:52.790Z,0
2022-09-20T00:45:01.970Z,0
2022-09-20T00:46:11.139Z,0
2022-09-20T00:47:20.317Z,0
2022-09-20T00:48:29.488Z,0
2022-09-20T00:49:38.650Z,0
2022-09-20T00:50:46.840Z,0
2022-09-20T00:51:56.016Z,0
2022-09-20T00:53:05.185Z,0
2022-09-20T00:54:14.354Z,0
2022-09-20T00:55:23.563Z,0
2022-09-20T00:56:32.717Z,0
2022-09-20T00:57:40.914Z,0
2022-09-20T00:58:49.089Z,0
2022-09-20T00:59:58.271Z,0
2022-09-20T01:01:07.428Z,0
2022-09-20T01:02:16.605Z,0
2022-09-20T01:03:24.803Z,0
2022-09-20T01:04:33.000Z,0
2022-09-20T01:05:42.172Z,0
2022-09-20T01:06:51.344Z,0
2022-09-20T01:08:00.515Z,0
2022-09-20T01:09:09.718Z,0
2022-09-20T01:10:18.866Z,0
2022-09-20T01:11:28.034Z,0
2022-09-20T01:12:37.202Z,0
2022-09-20T01:13:46.379Z,0
2022-09-20T01:14:55.559Z,0
2022-09-20T01:16:04.722Z,0
2022-09-20T01:17:13.899Z,0
2022-09-20T01:18:23.098Z,0
2022-09-20T01:19:31.250Z,0
2022-09-20T01:20:40.424Z,0
2022-09-20T01:21:49.603Z,0
2022-09-20T01:22:58.775Z,0
2022-09-20T01:24:07.955Z,0
2022-09-20T01:25:17.142Z,0
2022-09-20T01:26:26.301Z,0
2022-09-20T01:27:35.458Z,0
2022-09-20T01:28:44.641Z,0
2022-09-20T01:29:53.812Z,0
2022-09-20T01:31:02.981Z,0
2022-09-20T01:32:12.158Z,0
2022-09-20T01:33:21.327Z,0
2022-09-20T01:34:29.524Z,0
2022-09-20T01:35:38.686Z,0
2022-09-20T01:36:47.865Z,0
2022-09-20T01:37:56.051Z,0
2022-09-20T01:39:04.265Z,0
2022-09-20T01:40:13.413Z,0
2022-09-20T01:41:21.613Z,0
2022-09-20T01:42:29.794Z,0
2022-09-20T01:43:38.976Z,0
2022-09-20T01:44:48.144Z,0
2022-09-20T01:45:57.321Z,0
2022-09-20T01:47:06.489Z,0
2022-09-20T01:48:15.671Z,0
2022-09-20T01:49:24.841Z,0
2022-09-20T01:50:34.016Z,0
2022-09-20T01:51:43.180Z,0
2022-09-20T01:52:52.348Z,0
2022-09-20T01:54:01.519Z,0
2022-09-20T01:55:10.694Z,0
2022-09-20T01:56:19.868Z,0
2022-09-20T01:57:28.059Z,0
2022-09-20T01:58:37.234Z,0
2022-09-20T01:59:46.404Z,0
2022-09-20T02:00:55.586Z,0
2022-09-20T02:02:04.743Z,0
2022-09-20T02:03:13.915Z,0
2022-09-20T02:04:23.125Z,0
2022-09-20T02:05:32.266Z,0
2022-09-20T02:06:41.458Z,0
2022-09-20T02:07:50.612Z,0
2022-09-20T02:08:59.781Z,0
2022-09-20T02:10:08.969Z,0
2022-09-20T02:11:18.127Z,0
2022-09-20T02:12:26.327Z,0
2022-09-20T02:13:35.488Z,0
2022-09-20T02:14:44.672Z,0
2022-09-20T02:15:53.855Z,0
2022-09-20T02:17:03.005Z,0
2022-09-20T02:18:12.177Z,0
2022-09-20T02:19:21.347Z,0
2022-09-20T02:20:30.536Z,0
2022-09-20T02:21:39.699Z,0
2022-09-20T02:22:48.872Z,0
2022-09-20T02:23:58.039Z,0
2022-09-20T02:25:07.225Z,0
2022-09-20T02:26:16.385Z,0
2022-09-20T02:27:24.574Z,0
2022-09-20T02:28:33.747Z,0
2022-09-20T02:29:42.919Z,0
2022-09-20T02:30:52.088Z,0
2022-09-20T02:32:01.262Z,0
2022-09-20T02:33:10.442Z,0
2022-09-20T02:34:19.606Z,0
2022-09-20T02:35:28.788Z,0
2022-09-20T02:36:37.958Z,0
2022-09-20T02:37:47.129Z,0
2022-09-20T02:38:56.306Z,0
2022-09-20T02:40:05.476Z,0
2022-09-20T02:41:14.642Z,0
2022-09-20T02:42:22.843Z,0
2022-09-20T02:44:41.199Z,0
2022-09-20T02:45:50.349Z,0
2022-09-20T02:46:59.529Z,0
2022-09-20T02:48:08.695Z,0
2022-09-20T02:49:17.867Z,0
2022-09-20T02:50:27.053Z,0
2022-09-20T02:51:36.214Z,0
2022-09-20T02:52:45.397Z,0
2022-09-20T02:53:54.588Z,0
2022-09-20T02:55:03.738Z,0
2022-09-20T02:56:12.912Z,0
2022-09-20T02:57:21.100Z,0
2022-09-20T02:58:30.275Z,0
2022-09-20T02:59:39.446Z,0
2022-09-20T03:00:48.611Z,0
2022-09-20T03:01:57.791Z,0
2022-09-20T03:03:06.978Z,0
2022-09-20T03:04:16.135Z,0
2022-09-20T03:05:25.307Z,0
2022-09-20T03:06:34.477Z,0
2022-09-20T03:08:52.820Z,0
2022-09-20T03:10:01.993Z,0
2022-09-20T03:11:11.163Z,0
2022-09-20T03:12:19.356Z,0
2022-09-20T03:13:28.528Z,0
2022-09-20T03:14:37.707Z,0
2022-09-20T03:15:46.874Z,0
2022-09-20T03:16:56.045Z,0
2022-09-20T03:18:05.222Z,0
2022-09-20T03:19:14.384Z,0
2022-09-20T03:20:23.563Z,0
2022-09-20T03:21:32.737Z,0
2022-09-20T03:22:41.913Z,0
2022-09-20T03:23:51.087Z,0
2022-09-20T03:25:00.257Z,0
2022-09-20T03:26:09.421Z,0
2022-09-20T03:27:17.613Z,0
2022-09-20T03:28:26.795Z,0
2022-09-20T03:29:35.963Z,0
2022-09-20T03:30:45.134Z,0
2022-09-20T03:31:54.308Z,0
2022-09-20T03:33:03.479Z,0
2022-09-20T03:34:12.654Z,0
2022-09-20T03:35:21.822Z,0
2022-09-20T03:36:31.000Z,0
2022-09-20T03:37:40.154Z,0
2022-09-20T03:38:49.344Z,0
2022-09-20T03:39:58.528Z,0
2022-09-20T03:41:07.682Z,0
2022-09-20T03:42:15.868Z,0
2022-09-20T03:43:25.045Z,0
2022-09-20T03:44:34.227Z,0
2022-09-20T03:45:43.396Z,0
2022-09-20T03:46:52.571Z,0
2022-09-20T03:48:01.742Z,0
2022-09-20T03:49:10.902Z,0
2022-09-20T03:50:20.084Z,0
2022-09-20T03:51:29.257Z,0
2022-09-20T03:52:38.425Z,0
2022-09-20T03:53:47.606Z,0
2022-09-20T03:54:56.774Z,0
2022-09-20T03:56:05.950Z,0
2022-09-20T03:57:14.126Z,0
2022-09-20T03:58:23.301Z,0
2022-09-20T03:59:32.476Z,0
2022-09-20T04:00:41.643Z,0
2022-09-20T04:01:50.826Z,0
2022-09-20T04:02:59.995Z,0
2022-09-20T04:04:09.163Z,0
2022-09-20T04:05:18.347Z,0
2022-09-20T04:06:27.515Z,0
2022-09-20T04:07:36.681Z,0
2022-09-20T04:08:45.854Z,0
2022-09-20T04:09:55.022Z,0
2022-09-20T04:11:04.204Z,0
2022-09-20T04:12:12.395Z,0
2022-09-20T04:13:21.561Z,0
2022-09-20T04:14:30.742Z,0
2022-09-20T04:15:39.910Z,0
2022-09-20T04:16:49.083Z,0
2022-09-20T04:17:58.253Z,0
2022-09-20T04:19:07.421Z,0
2022-09-20T04:20:16.590Z,0
2022-09-20T04:21:25.764Z,0
2022-09-20T04:22:34.931Z,0
2022-09-20T04:23:44.107Z,0
2022-09-20T04:24:53.286Z,0
2022-09-20T04:26:02.459Z,0
2022-09-20T04:27:10.653Z,0
2022-09-20T04:28:19.827Z,0
2022-09-20T04:29:28.990Z,0
2022-09-20T04:30:38.162Z,0
2022-09-20T04:31:47.341Z,0
2022-09-20T04:32:56.506Z,0
2022-09-20T04:34:05.691Z,0
2022-09-20T04:35:14.878Z,0
2022-09-20T04:36:24.030Z,0
2022-09-20T04:37:33.239Z,0
2022-09-20T04:38:42.374Z,0
2022-09-20T04:39:51.541Z,0
2022-09-20T04:41:00.722Z,0
2022-09-20T04:42:08.906Z,0
2022-09-20T04:43:18.071Z,0
2022-09-20T04:44:27.247Z,0
2022-09-20T04:45:36.423Z,0
2022-09-20T04:46:45.598Z,0
2022-09-20T04:47:54.782Z,0
2022-09-20T04:49:03.943Z,0
2022-09-20T04:50:13.182Z,0
2022-09-20T04:51:21.326Z,0
2022-09-20T04:52:29.502Z,0
2022-09-20T04:53:38.671Z,0
2022-09-20T04:54:46.864Z,0
2022-09-20T04:55:55.073Z,0
2022-09-20T04:57:03.253Z,0
2022-09-20T04:58:12.424Z,0
2022-09-20T04:59:21.594Z,0
2022-09-20T05:00:30.768Z,0
2022-09-20T05:01:39.946Z,0
2022-09-20T05:02:49.154Z,0
2022-09-20T05:03:58.335Z,0
2022-09-20T05:05:07.465Z,0
2022-09-20T05:06:16.631Z,0
2022-09-20T05:07:25.815Z,0
2022-09-20T05:08:34.981Z,0
2022-09-20T05:09:44.152Z,0
2022-09-20T05:10:53.324Z,0
2022-09-20T05:12:01.519Z,5
2022-09-20T05:13:10.688Z,5
2022-09-20T05:14:19.922Z,5
2022-09-20T05:15:29.033Z,5
2022-09-20T05:16:38.214Z,5
2022-09-20T05:17:47.384Z,5
2022-09-20T05:18:56.554Z,5
2022-09-20T05:20:05.725Z,11
2022-09-20T05:21:14.906Z,11
2022-09-20T05:22:24.077Z,11
2022-09-20T05:23:33.243Z,11
2022-09-20T05:24:42.418Z,11
2022-09-20T05:25:51.588Z,11
2022-09-20T05:26:59.773Z,16
2022-09-20T05:28:08.944Z,16
2022-09-20T05:29:18.132Z,16
2022-09-20T05:30:27.288Z,16
2022-09-20T05:31:36.466Z,22
2022-09-20T05:32:45.649Z,22
2022-09-20T05:33:54.812Z,22
2022-09-20T05:35:04.011Z,22
2022-09-20T05:36:13.172Z,22
2022-09-20T05:37:22.339Z,28
2022-09-20T05:38:31.503Z,28
2022-09-20T05:39:40.681Z,28
2022-09-20T05:40:49.856Z,28
2022-09-20T05:41:58.040Z,28
2022-09-20T05:43:07.219Z,33
2022-09-20T05:44:16.390Z,33
2022-09-20T05:45:25.573Z,33
2022-09-20T05:46:34.731Z,33
2022-09-20T05:47:43.900Z,33
2022-09-20T05:48:53.090Z,39
2022-09-20T05:50:02.253Z,39
2022-09-20T05:51:11.427Z,45
2022-09-20T05:52:20.604Z,45
2022-09-20T05:53:29.771Z,45
2022-09-20T05:54:38.951Z,45
2022-09-20T05:55:48.110Z,50
2022-09-20T05:56:56.308Z,50
2022-09-20T05:58:05.476Z,50
2022-09-20T05:59:14.661Z,56
2022-09-20T06:00:23.878Z,56
2022-09-20T06:01:33.000Z,61
2022-09-20T06:02:41.217Z,73
2022-09-20T06:03:49.395Z,67
2022-09-20T06:04:58.548Z,78
2022-09-20T06:06:07.714Z,78
2022-09-20T06:07:16.890Z,78
2022-09-20T06:08:26.082Z,78
2022-09-20T06:09:35.247Z,78
2022-09-20T06:10:44.410Z,78
2022-09-20T06:11:53.682Z,78
2022-09-20T06:13:01.830Z,84
2022-09-20T06:14:10.011Z,61
2022-09-20T06:15:19.147Z,67
2022-09-20T06:16:28.331Z,67
2022-09-20T06:17:37.510Z,78
2022-09-20T06:18:46.668Z,73
2022-09-20T06:19:55.838Z,67
2022-09-20T06:21:05.003Z,67
2022-09-20T06:22:14.196Z,73
2022-09-20T06:23:23.350Z,67
2022-09-20T06:24:32.530Z,67
2022-09-20T06:25:41.687Z,61
2022-09-20T06:26:50.858Z,61
2022-09-20T06:28:00.052Z,61
2022-09-20T06:29:08.233Z,61
2022-09-20T06:30:17.398Z,61
2022-09-20T06:31:26.588Z,61
2022-09-20T06:32:35.749Z,61
2022-09-20T06:33:44.931Z,61
2022-09-20T06:34:54.086Z,61
2022-09-20T06:36:03.272Z,67
2022-09-20T06:37:11.487Z,73
2022-09-20T06:38:19.653Z,78
2022-09-20T06:39:28.824Z,106
2022-09-20T06:40:38.004Z,78
2022-09-20T06:41:47.210Z,101
2022-09-20T06:42:56.348Z,73
2022-09-20T06:44:04.548Z,84
2022-09-20T06:45:12.718Z,95
2022-09-20T06:46:21.888Z,78
2022-09-20T06:47:31.066Z,84
2022-09-20T06:48:40.244Z,90
2022-09-20T06:49:49.413Z,118
2022-09-20T06:50:58.579Z,112
2022-09-20T06:52:07.750Z,118
2022-09-20T06:53:16.927Z,135
2022-09-20T06:54:26.097Z,129
2022-09-20T06:55:35.272Z,129
2022-09-20T06:56:44.441Z,101
2022-09-20T06:57:53.607Z,106
2022-09-20T06:59:02.795Z,129
2022-09-20T07:00:10.976Z,140
2022-09-20T07:01:20.155Z,146
2022-09-20T07:02:29.323Z,146
2022-09-20T07:03:38.495Z,140
2022-09-20T07:04:47.678Z,140
2022-09-20T07:05:56.838Z,140
2022-09-20T07:07:06.011Z,140
2022-09-20T07:08:14.220Z,140
2022-09-20T07:09:22.400Z,135
2022-09-20T07:10:30.626Z,140
2022-09-20T07:11:38.882Z,129
2022-09-20T07:12:48.071Z,101
2022-09-20T07:13:57.118Z,90
2022-09-20T07:15:06.287Z,101
2022-09-20T07:16:15.461Z,106
2022-09-20T07:17:24.630Z,84
2022-09-20T07:18:33.816Z,84
2022-09-20T07:19:43.000Z,90
2022-09-20T07:20:52.217Z,106
2022-09-20T07:22:01.319Z,129
2022-09-20T07:23:10.503Z,101
2022-09-20T07:24:19.675Z,90
2022-09-20T07:25:28.844Z,123
2022-09-20T07:26:37.029Z,146
2022-09-20T07:27:46.202Z,146
2022-09-20T07:28:55.368Z,146
2022-09-20T07:30:04.544Z,146
2022-09-20T07:31:13.742Z,146
2022-09-20T07:32:22.881Z,146
2022-09-20T07:33:32.062Z,151
2022-09-20T07:34:41.226Z,151
2022-09-20T07:35:50.401Z,151
2022-09-20T07:36:59.586Z,151
2022-09-20T07:38:08.745Z,151
2022-09-20T07:39:17.937Z,151
2022-09-20T07:40:27.091Z,157
2022-09-20T07:41:35.287Z,157
2022-09-20T07:42:44.467Z,157
2022-09-20T07:43:52.739Z,157
2022-09-20T07:45:00.837Z,157
2022-09-20T07:46:09.025Z,163
2022-09-20T07:47:17.225Z,163
2022-09-20T07:48:26.387Z,168
2022-09-20T07:49:35.561Z,168
2022-09-20T07:50:44.731Z,168
2022-09-20T07:51:53.904Z,168
2022-09-20T07:53:03.082Z,168
2022-09-20T07:54:12.267Z,180
2022-09-20T07:55:21.426Z,168
2022-09-20T07:56:30.595Z,168
2022-09-20T07:57:39.774Z,168
2022-09-20T07:59:58.116Z,174
2022-09-20T08:01:07.293Z,174
2022-09-20T08:02:15.487Z,180
2022-09-20T08:03:24.643Z,185
2022-09-20T08:04:33.821Z,185
2022-09-20T08:05:42.986Z,180
2022-09-20T08:06:52.219Z,185
2022-09-20T08:08:01.519Z,191
2022-09-20T08:09:10.500Z,191
2022-09-20T08:10:19.681Z,196
2022-09-20T08:11:28.847Z,196
2022-09-20T08:12:37.053Z,202
2022-09-20T08:13:45.237Z,208
2022-09-20T08:14:53.426Z,151
2022-09-20T08:16:01.607Z,213
2022-09-20T08:17:10.793Z,146
2022-09-20T08:18:19.960Z,151
2022-09-20T08:19:29.132Z,140
2022-09-20T08:20:38.299Z,140
2022-09-20T08:21:47.482Z,157
2022-09-20T08:22:56.654Z,163
2022-09-20T08:24:05.824Z,253
2022-09-20T08:25:14.993Z,236
2022-09-20T08:26:24.160Z,247
2022-09-20T08:27:33.334Z,225
2022-09-20T08:28:42.507Z,230
2022-09-20T08:29:51.688Z,225
2022-09-20T08:30:59.869Z,247
2022-09-20T08:32:09.058Z,241
2022-09-20T08:33:18.213Z,225
2022-09-20T08:34:27.372Z,241
2022-09-20T08:35:36.564Z,168
2022-09-20T08:36:45.729Z,191
2022-09-20T08:37:54.899Z,163
2022-09-20T08:39:04.076Z,247
2022-09-20T08:40:13.244Z,157
2022-09-20T08:41:22.411Z,202
2022-09-20T08:42:31.593Z,168
2022-09-20T08:43:40.774Z,202
2022-09-20T08:44:49.932Z,247
2022-09-20T08:45:58.119Z,241
2022-09-20T08:47:07.299Z,270
2022-09-20T08:48:15.487Z,180
2022-09-20T08:49:23.685Z,258
2022-09-20T08:50:32.857Z,264
2022-09-20T08:51:42.037Z,292
2022-09-20T08:52:50.219Z,298
2022-09-20T08:53:58.418Z,270
2022-09-20T08:55:07.585Z,196
2022-09-20T08:56:16.750Z,219
2022-09-20T08:57:25.923Z,225
2022-09-20T08:58:35.102Z,202
2022-09-20T08:59:44.272Z,258
2022-09-20T09:00:53.439Z,230
2022-09-20T09:02:02.614Z,219
2022-09-20T09:03:11.782Z,236
2022-09-20T09:04:20.962Z,315
2022-09-20T09:05:30.125Z,286
2022-09-20T09:06:39.297Z,303
2022-09-20T09:07:48.482Z,292
2022-09-20T09:08:56.653Z,275
2022-09-20T09:10:05.839Z,230
2022-09-20T09:11:15.001Z,219
2022-09-20T09:12:24.179Z,219
2022-09-20T09:13:33.358Z,241
2022-09-20T09:14:42.524Z,191
2022-09-20T09:15:51.691Z,185
2022-09-20T09:17:00.873Z,180
2022-09-20T09:18:10.034Z,174
2022-09-20T09:19:19.204Z,163
2022-09-20T09:20:28.389Z,157
2022-09-20T09:21:37.546Z,146
2022-09-20T09:22:46.728Z,140
2022-09-20T09:23:55.900Z,135
2022-09-20T09:25:04.093Z,151
2022-09-20T09:26:13.250Z,135
2022-09-20T09:27:22.424Z,151
2022-09-20T09:28:31.599Z,146
2022-09-20T09:29:40.774Z,146
2022-09-20T09:30:49.956Z,146
2022-09-20T09:31:59.117Z,247
2022-09-20T09:33:08.300Z,247
2022-09-20T09:34:17.470Z,151
2022-09-20T09:35:26.644Z,326
2022-09-20T09:36:35.832Z,331
2022-09-20T09:37:44.986Z,360
2022-09-20T09:38:54.157Z,174
2022-09-20T09:40:03.325Z,427
2022-09-20T09:41:11.512Z,489
2022-09-20T09:42:20.689Z,511
2022-09-20T09:43:29.854Z,478
2022-09-20T09:44:39.039Z,466
2022-09-20T09:45:48.277Z,483
2022-09-20T09:46:57.520Z,511
2022-09-20T09:48:06.636Z,478
2022-09-20T09:49:15.718Z,466
2022-09-20T09:50:24.889Z,495
2022-09-20T09:51:34.088Z,506
2022-09-20T09:52:43.350Z,286
2022-09-20T09:53:52.418Z,286
2022-09-20T09:55:01.575Z,315
2022-09-20T09:56:10.835Z,320
2022-09-20T09:57:18.945Z,315
2022-09-20T09:58:28.237Z,303
2022-09-20T09:59:37.285Z,320
2022-09-20T10:00:46.452Z,331
2022-09-20T10:01:55.629Z,303
2022-09-20T10:03:04.799Z,292
2022-09-20T10:04:14.105Z,286
2022-09-20T10:05:23.189Z,360
2022-09-20T10:06:32.313Z,360
2022-09-20T10:07:41.484Z,236
2022-09-20T10:08:50.661Z,213
2022-09-20T10:09:59.826Z,174
2022-09-20T10:11:09.009Z,151
2022-09-20T10:12:17.191Z,129
2022-09-20T10:13:26.362Z,112
2022-09-20T10:14:35.533Z,112
2022-09-20T10:15:44.715Z,101
2022-09-20T10:16:53.893Z,106
2022-09-20T10:18:03.052Z,118
2022-09-20T10:19:12.229Z,129
2022-09-20T10:20:21.396Z,146
2022-09-20T10:21:30.567Z,157
2022-09-20T10:22:39.749Z,168
2022-09-20T10:23:48.921Z,174
2022-09-20T10:24:58.082Z,180
2022-09-20T10:26:07.255Z,174
2022-09-20T10:27:16.434Z,180
2022-09-20T10:28:24.609Z,180
2022-09-20T10:29:33.786Z,185
2022-09-20T10:30:42.960Z,196
2022-09-20T10:31:52.153Z,371
2022-09-20T10:33:01.330Z,376
2022-09-20T10:34:10.553Z,388
2022-09-20T10:35:19.651Z,388
2022-09-20T10:36:28.849Z,376
2022-09-20T10:37:37.990Z,365
2022-09-20T10:38:47.283Z,354
2022-09-20T10:39:56.333Z,365
2022-09-20T10:41:05.505Z,393
2022-09-20T10:42:14.677Z,405
2022-09-20T10:43:22.870Z,405
2022-09-20T10:44:32.041Z,348
2022-09-20T10:45:41.211Z,365
2022-09-20T10:46:50.384Z,326
2022-09-20T10:47:59.573Z,354
2022-09-20T10:49:08.879Z,326
2022-09-20T10:50:18.037Z,326
2022-09-20T10:51:27.143Z,331
2022-09-20T10:52:36.262Z,326
2022-09-20T10:53:45.510Z,320
2022-09-20T10:54:54.583Z,337
2022-09-20T10:56:03.784Z,337
2022-09-20T10:57:12.939Z,348
2022-09-20T10:58:21.195Z,354
2022-09-20T10:59:30.340Z,309
2022-09-20T11:00:39.473Z,331
2022-09-20T11:01:48.637Z,286
2022-09-20T11:02:57.809Z,326
2022-09-20T11:04:06.983Z,315
2022-09-20T11:05:16.150Z,298
2022-09-20T11:06:25.340Z,348
2022-09-20T11:07:34.492Z,354
2022-09-20T11:08:43.675Z,360
2022-09-20T11:09:52.846Z,365
2022-09-20T11:11:02.012Z,371
2022-09-20T11:12:11.186Z,382
2022-09-20T11:13:19.398Z,405
2022-09-20T11:14:28.581Z,433
2022-09-20T11:15:37.720Z,478
2022-09-20T11:16:46.890Z,506
2022-09-20T11:17:56.064Z,517
2022-09-20T11:19:05.253Z,517
2022-09-20T11:20:14.401Z,517
2022-09-20T11:21:23.578Z,483
2022-09-20T11:22:32.750Z,393
2022-09-20T11:23:41.922Z,348
2022-09-20T11:24:51.106Z,326
2022-09-20T11:26:00.281Z,376
2022-09-20T11:27:09.444Z,382
2022-09-20T11:28:17.625Z,315
2022-09-20T11:29:26.826Z,331
2022-09-20T11:30:35.975Z,360
2022-09-20T11:31:45.148Z,360
2022-09-20T11:32:54.316Z,337
2022-09-20T11:34:03.501Z,320
2022-09-20T11:35:12.662Z,315
2022-09-20T11:36:21.827Z,309
2022-09-20T11:37:31.005Z,303
2022-09-20T11:38:40.176Z,303
2022-09-20T11:39:49.422Z,298
2022-09-20T11:40:58.523Z,303
2022-09-20T11:42:07.693Z,303
2022-09-20T11:43:15.892Z,309
2022-09-20T11:44:25.066Z,326
2022-09-20T11:45:34.225Z,331
2022-09-20T11:46:43.396Z,337
2022-09-20T11:47:52.581Z,331
2022-09-20T11:49:01.746Z,326
2022-09-20T11:50:10.918Z,326
2022-09-20T11:51:20.085Z,331
2022-09-20T11:52:29.278Z,343
2022-09-20T11:53:38.430Z,348
2022-09-20T11:54:47.613Z,348
2022-09-20T11:55:56.827Z,354
2022-09-20T11:57:05.981Z,371
2022-09-20T11:58:14.146Z,399
2022-09-20T11:59:23.306Z,343
2022-09-20T12:00:32.485Z,410
2022-09-20T12:01:41.648Z,405
2022-09-20T12:02:50.888Z,410
2022-09-20T12:04:00.011Z,382
2022-09-20T12:05:09.170Z,388
2022-09-20T12:06:18.345Z,478
2022-09-20T12:07:27.558Z,461
2022-09-20T12:08:36.727Z,450
2022-09-20T12:09:45.902Z,466
2022-09-20T12:10:55.041Z,545
2022-09-20T12:12:04.202Z,568
2022-09-20T12:13:12.382Z,579
2022-09-20T12:14:21.572Z,624
2022-09-20T12:15:30.737Z,258
2022-09-20T12:16:39.914Z,354
2022-09-20T12:17:49.085Z,247
2022-09-20T12:18:58.257Z,225
2022-09-20T12:20:07.426Z,652
2022-09-20T12:21:16.608Z,219
2022-09-20T12:22:25.791Z,230
2022-09-20T12:23:34.941Z,247
2022-09-20T12:24:44.115Z,225
2022-09-20T12:25:53.282Z,641
2022-09-20T12:27:02.493Z,658
2022-09-20T12:28:10.633Z,776
2022-09-20T12:29:19.822Z,905
2022-09-20T12:30:28.991Z,883
2022-09-20T12:31:38.169Z,1192
2022-09-20T12:32:47.328Z,1158
2022-09-20T12:33:56.613Z,1001
2022-09-20T12:35:05.802Z,1119
2022-09-20T12:36:14.848Z,1985
2022-09-20T12:37:24.031Z,2058
2022-09-20T12:38:32.209Z,1783
2022-09-20T12:39:41.399Z,1670
2022-09-20T12:40:50.554Z,1485
2022-09-20T12:41:59.734Z,1344
2022-09-20T12:43:08.901Z,1310
2022-09-20T12:44:18.077Z,1417
2022-09-20T12:45:27.248Z,1231
2022-09-20T12:46:36.424Z,1209
2022-09-20T12:47:45.599Z,1170
2022-09-20T12:48:54.759Z,1096
2022-09-20T12:50:03.959Z,1035
2022-09-20T12:51:13.097Z,292
2022-09-20T12:52:22.289Z,298
2022-09-20T12:53:30.474Z,315
2022-09-20T12:54:39.637Z,736
2022-09-20T12:55:48.818Z,382
2022-09-20T12:56:57.982Z,793
2022-09-20T12:58:07.157Z,905
2022-09-20T12:59:16.321Z,399
2022-09-20T13:00:25.494Z,388
2022-09-20T13:01:34.687Z,393
2022-09-20T13:02:43.840Z,461
2022-09-20T13:03:53.015Z,984
2022-09-20T13:05:02.189Z,410
2022-09-20T13:06:11.357Z,376
2022-09-20T13:07:20.526Z,365
2022-09-20T13:08:28.745Z,376
2022-09-20T13:09:37.891Z,421
2022-09-20T13:10:47.099Z,466
2022-09-20T13:11:56.264Z,511
2022-09-20T13:13:05.429Z,506
2022-09-20T13:14:14.581Z,540
2022-09-20T13:15:23.855Z,652
2022-09-20T13:16:33.084Z,641
2022-09-20T13:17:42.157Z,686
2022-09-20T13:18:51.273Z,1074
2022-09-20T13:20:00.438Z,1845
2022-09-20T13:21:09.608Z,675
2022-09-20T13:22:18.793Z,714
2022-09-20T13:23:26.987Z,708
2022-09-20T13:24:36.145Z,725
2022-09-20T13:25:45.320Z,2306
2022-09-20T13:26:54.496Z,2323
2022-09-20T13:28:03.657Z,2829
2022-09-20T13:29:12.848Z,2632
2022-09-20T13:30:21.035Z,866
2022-09-20T13:31:29.215Z,613
2022-09-20T13:32:38.388Z,601
2022-09-20T13:33:47.569Z,770
2022-09-20T13:34:55.763Z,517
2022-09-20T13:36:03.947Z,511
2022-09-20T13:37:13.116Z,511
2022-09-20T13:38:22.284Z,540
2022-09-20T13:39:31.462Z,523
2022-09-20T13:40:40.625Z,1113
2022-09-20T13:41:49.800Z,2036
2022-09-20T13:42:58.978Z,776
2022-09-20T13:44:08.165Z,472
2022-09-20T13:45:17.337Z,450
2022-09-20T13:46:26.497Z,596
2022-09-20T13:47:35.664Z,506
2022-09-20T13:48:44.833Z,438
2022-09-20T13:49:54.013Z,405
2022-09-20T13:51:02.194Z,382
2022-09-20T13:52:11.375Z,371
2022-09-20T13:53:20.556Z,365
2022-09-20T13:54:29.721Z,365
2022-09-20T13:55:38.883Z,376
2022-09-20T13:56:48.051Z,410
2022-09-20T13:57:57.235Z,500
2022-09-20T13:59:05.429Z,455
2022-09-20T14:00:13.614Z,455
2022-09-20T14:01:22.783Z,450
2022-09-20T14:02:31.957Z,500
2022-09-20T14:03:41.211Z,601
2022-09-20T14:04:49.326Z,1108
2022-09-20T14:05:57.516Z,956
2022-09-20T14:07:06.683Z,2311
2022-09-20T14:08:15.857Z,1687
2022-09-20T14:09:25.038Z,410
2022-09-20T14:10:34.199Z,376
2022-09-20T14:11:43.377Z,365
2022-09-20T14:12:52.544Z,382
2022-09-20T14:14:01.719Z,365
2022-09-20T14:15:10.903Z,253
2022-09-20T14:16:20.062Z,196
2022-09-20T14:17:29.240Z,151
2022-09-20T14:18:38.414Z,118
2022-09-20T14:19:47.578Z,90
2022-09-20T14:20:55.763Z,73
2022-09-20T14:22:04.941Z,61
2022-09-20T14:23:14.111Z,56
2022-09-20T14:24:23.280Z,50
2022-09-20T14:25:32.455Z,50
2022-09-20T14:26:41.633Z,50
2022-09-20T14:27:50.802Z,50
2022-09-20T14:28:59.972Z,56
2022-09-20T14:30:09.134Z,61
2022-09-20T14:31:18.327Z,67
2022-09-20T14:32:27.486Z,67
2022-09-20T14:33:36.663Z,67
2022-09-20T14:34:45.829Z,67
2022-09-20T14:35:54.019Z,67
2022-09-20T14:37:03.231Z,67
2022-09-20T14:38:12.362Z,78
2022-09-20T14:39:21.542Z,78
2022-09-20T14:40:30.714Z,84
2022-09-20T14:41:39.884Z,84
2022-09-20T14:42:49.053Z,84
2022-09-20T14:43:58.233Z,90
2022-09-20T14:45:07.401Z,95
2022-09-20T14:46:16.573Z,106
2022-09-20T14:47:25.737Z,95
2022-09-20T14:48:34.910Z,90
2022-09-20T14:49:44.088Z,90
2022-09-20T14:50:52.273Z,90
2022-09-20T14:52:01.464Z,90
2022-09-20T14:53:10.644Z,90
2022-09-20T14:54:19.795Z,90
2022-09-20T14:55:28.965Z,90
2022-09-20T14:56:38.143Z,101
2022-09-20T14:57:47.314Z,95
2022-09-20T14:58:56.480Z,95
2022-09-20T15:00:05.653Z,95
2022-09-20T15:01:14.826Z,95
2022-09-20T15:02:23.026Z,101
2022-09-20T15:03:31.211Z,106
2022-09-20T15:04:40.378Z,112
2022-09-20T15:05:49.548Z,123
2022-09-20T15:06:58.727Z,123
2022-09-20T15:08:07.975Z,123
2022-09-20T15:09:17.068Z,123
2022-09-20T15:10:26.283Z,123
2022-09-20T15:11:35.415Z,123
2022-09-20T15:12:44.591Z,123
2022-09-20T15:13:53.815Z,118
2022-09-20T15:15:02.961Z,106
2022-09-20T15:16:12.107Z,101
2022-09-20T15:17:21.277Z,101
2022-09-20T15:18:29.461Z,101
2022-09-20T15:19:38.638Z,101
2022-09-20T15:20:47.811Z,101
2022-09-20T15:21:56.982Z,106
2022-09-20T15:23:06.169Z,118
2022-09-20T15:24:15.322Z,123
2022-09-20T15:25:24.493Z,146
2022-09-20T15:26:32.698Z,163
2022-09-20T15:27:40.882Z,202
2022-09-20T15:28:50.058Z,225
2022-09-20T15:29:59.225Z,247
2022-09-20T15:31:08.397Z,258
2022-09-20T15:32:16.615Z,315
2022-09-20T15:33:24.783Z,286
2022-09-20T15:34:33.974Z,303
2022-09-20T15:35:43.127Z,1681
2022-09-20T15:36:52.287Z,956
2022-09-20T15:38:01.487Z,686
2022-09-20T15:39:10.636Z,1282
2022-09-20T15:40:19.811Z,2143
2022-09-20T15:41:28.997Z,365
2022-09-20T15:42:38.151Z,371
2022-09-20T15:43:47.335Z,354
2022-09-20T15:44:56.509Z,405
2022-09-20T15:46:05.672Z,1012
2022-09-20T15:47:14.856Z,1755
2022-09-20T15:48:23.046Z,2081
2022-09-20T15:49:32.202Z,1794
2022-09-20T15:50:41.388Z,1867
2022-09-20T15:51:50.635Z,1676
2022-09-20T15:52:59.733Z,1918
2022-09-20T15:54:08.893Z,894
2022-09-20T15:55:18.062Z,438
2022-09-20T15:56:27.277Z,309
2022-09-20T15:57:36.425Z,247
2022-09-20T15:58:45.615Z,219
2022-09-20T15:59:54.799Z,225
2022-09-20T16:01:03.937Z,821
2022-09-20T16:02:13.100Z,410
2022-09-20T16:03:21.289Z,191
2022-09-20T16:04:30.501Z,180
2022-09-20T16:05:39.636Z,416
2022-09-20T16:06:48.801Z,225
2022-09-20T16:07:57.986Z,1501
2022-09-20T16:09:07.150Z,1771
2022-09-20T16:10:16.321Z,1665
2022-09-20T16:11:25.500Z,1237
2022-09-20T16:12:34.734Z,511
2022-09-20T16:13:43.831Z,208
2022-09-20T16:14:53.009Z,191
2022-09-20T16:16:02.297Z,208
2022-09-20T16:17:11.351Z,236
2022-09-20T16:18:19.572Z,191
2022-09-20T16:19:28.704Z,168